sensor_id;sensor_type;location;lat;lon;timestamp;temperature;humidity
11647;DHT22;5880;52.342;9.662;2023-04-08T00:00:23;10.30;45.00
11647;DHT22;5880;52.342;9.662;2023-04-08T00:02:48;10.30;44.90
11647;DHT22;5880;52.342;9.662;2023-04-08T00:05:15;10.30;45.20
11647;DHT22;5880;52.342;9.662;2023-04-08T00:07:40;10.30;44.50
11647;DHT22;5880;52.342;9.662;2023-04-08T00:10:06;10.30;44.50
11647;DHT22;5880;52.342;9.662;2023-04-08T00:12:33;10.30;45.20
11647;DHT22;5880;52.342;9.662;2023-04-08T00:14:58;10.30;45.00
11647;DHT22;5880;52.342;9.662;2023-04-08T00:17:24;10.30;44.80
11647;DHT22;5880;52.342;9.662;2023-04-08T00:19:50;10.30;44.40
11647;DHT22;5880;52.342;9.662;2023-04-08T00:22:16;10.30;44.60
11647;DHT22;5880;52.342;9.662;2023-04-08T00:24:45;10.30;44.40
11647;DHT22;5880;52.342;9.662;2023-04-08T00:27:10;10.30;44.20
11647;DHT22;5880;52.342;9.662;2023-04-08T00:29:36;10.30;45.40
11647;DHT22;5880;52.342;9.662;2023-04-08T00:32:02;10.30;44.60
11647;DHT22;5880;52.342;9.662;2023-04-08T00:34:28;10.30;44.30
11647;DHT22;5880;52.342;9.662;2023-04-08T00:36:53;10.30;44.10
11647;DHT22;5880;52.342;9.662;2023-04-08T00:39:20;10.30;44.10
11647;DHT22;5880;52.342;9.662;2023-04-08T00:41:46;10.30;44.40
11647;DHT22;5880;52.342;9.662;2023-04-08T00:44:11;10.30;44.40
11647;DHT22;5880;52.342;9.662;2023-04-08T00:46:40;10.30;44.40
11647;DHT22;5880;52.342;9.662;2023-04-08T00:49:06;10.30;45.30
11647;DHT22;5880;52.342;9.662;2023-04-08T00:51:32;10.30;44.40
11647;DHT22;5880;52.342;9.662;2023-04-08T00:54:01;10.30;44.30
11647;DHT22;5880;52.342;9.662;2023-04-08T00:56:29;10.30;44.20
11647;DHT22;5880;52.342;9.662;2023-04-08T00:58:57;10.30;44.10
11647;DHT22;5880;52.342;9.662;2023-04-08T01:04:43;10.30;45.10
11647;DHT22;5880;52.342;9.662;2023-04-08T01:07:24;10.30;45.40
11647;DHT22;5880;52.342;9.662;2023-04-08T01:09:57;10.30;44.90
11647;DHT22;5880;52.342;9.662;2023-04-08T01:12:29;10.30;45.10
11647;DHT22;5880;52.342;9.662;2023-04-08T01:15:00;10.20;44.90
11647;DHT22;5880;52.342;9.662;2023-04-08T01:17:30;10.20;45.20
11647;DHT22;5880;52.342;9.662;2023-04-08T01:19:59;10.20;44.60
11647;DHT22;5880;52.342;9.662;2023-04-08T01:22:36;10.20;45.00
11647;DHT22;5880;52.342;9.662;2023-04-08T01:25:20;10.20;46.10
11647;DHT22;5880;52.342;9.662;2023-04-08T01:27:48;10.20;46.20
11647;DHT22;5880;52.342;9.662;2023-04-08T01:30:16;10.20;46.30
11647;DHT22;5880;52.342;9.662;2023-04-08T01:32:44;10.20;45.70
11647;DHT22;5880;52.342;9.662;2023-04-08T01:35:11;10.20;45.40
11647;DHT22;5880;52.342;9.662;2023-04-08T01:37:42;10.10;45.40
11647;DHT22;5880;52.342;9.662;2023-04-08T01:40:11;10.20;45.30
11647;DHT22;5880;52.342;9.662;2023-04-08T01:42:38;10.10;45.20
11647;DHT22;5880;52.342;9.662;2023-04-08T01:45:05;10.10;45.30
11647;DHT22;5880;52.342;9.662;2023-04-08T01:47:33;10.10;45.60
11647;DHT22;5880;52.342;9.662;2023-04-08T01:50:00;10.10;45.90
11647;DHT22;5880;52.342;9.662;2023-04-08T01:52:28;10.10;46.80
11647;DHT22;5880;52.342;9.662;2023-04-08T01:54:55;10.10;45.90
11647;DHT22;5880;52.342;9.662;2023-04-08T01:57:23;10.10;45.80
11647;DHT22;5880;52.342;9.662;2023-04-08T01:59:56;10.10;46.00
11647;DHT22;5880;52.342;9.662;2023-04-08T02:02:26;10.10;46.40
11647;DHT22;5880;52.342;9.662;2023-04-08T02:04:53;10.10;45.80
11647;DHT22;5880;52.342;9.662;2023-04-08T02:07:20;10.10;46.20
11647;DHT22;5880;52.342;9.662;2023-04-08T02:09:45;10.10;45.90
11647;DHT22;5880;52.342;9.662;2023-04-08T02:12:11;10.10;45.80
11647;DHT22;5880;52.342;9.662;2023-04-08T02:14:37;10.10;45.70
11647;DHT22;5880;52.342;9.662;2023-04-08T02:17:10;10.10;46.10
11647;DHT22;5880;52.342;9.662;2023-04-08T02:25:03;10.10;46.60
11647;DHT22;5880;52.342;9.662;2023-04-08T02:27:38;10.10;46.00
11647;DHT22;5880;52.342;9.662;2023-04-08T02:30:07;10.10;46.30
11647;DHT22;5880;52.342;9.662;2023-04-08T02:32:35;10.10;46.10
11647;DHT22;5880;52.342;9.662;2023-04-08T02:35:03;10.10;46.20
11647;DHT22;5880;52.342;9.662;2023-04-08T02:37:30;10.10;46.40
11647;DHT22;5880;52.342;9.662;2023-04-08T02:39:57;10.10;46.60
11647;DHT22;5880;52.342;9.662;2023-04-08T02:42:23;10.10;46.50
11647;DHT22;5880;52.342;9.662;2023-04-08T02:44:49;10.10;46.40
11647;DHT22;5880;52.342;9.662;2023-04-08T02:47:15;10.10;46.40
11647;DHT22;5880;52.342;9.662;2023-04-08T02:49:41;10.10;46.30
11647;DHT22;5880;52.342;9.662;2023-04-08T02:52:06;10.10;46.30
11647;DHT22;5880;52.342;9.662;2023-04-08T02:54:32;10.10;46.30
11647;DHT22;5880;52.342;9.662;2023-04-08T02:56:58;10.20;46.60
11647;DHT22;5880;52.342;9.662;2023-04-08T02:59:23;10.10;46.90
11647;DHT22;5880;52.342;9.662;2023-04-08T03:01:49;10.20;46.60
11647;DHT22;5880;52.342;9.662;2023-04-08T03:04:15;10.10;46.40
11647;DHT22;5880;52.342;9.662;2023-04-08T03:06:41;10.20;46.30
11647;DHT22;5880;52.342;9.662;2023-04-08T03:09:06;10.10;46.50
11647;DHT22;5880;52.342;9.662;2023-04-08T03:11:32;10.10;46.30
11647;DHT22;5880;52.342;9.662;2023-04-08T03:13:58;10.10;46.60
11647;DHT22;5880;52.342;9.662;2023-04-08T03:16:24;10.10;46.60
11647;DHT22;5880;52.342;9.662;2023-04-08T03:18:50;10.10;46.90
11647;DHT22;5880;52.342;9.662;2023-04-08T03:21:16;10.10;46.70
11647;DHT22;5880;52.342;9.662;2023-04-08T03:23:42;10.10;46.70
11647;DHT22;5880;52.342;9.662;2023-04-08T03:26:08;10.10;46.80
11647;DHT22;5880;52.342;9.662;2023-04-08T03:28:34;10.10;46.80
11647;DHT22;5880;52.342;9.662;2023-04-08T03:31:01;10.10;46.70
11647;DHT22;5880;52.342;9.662;2023-04-08T03:33:30;10.10;46.90
11647;DHT22;5880;52.342;9.662;2023-04-08T03:35:55;10.10;47.10
11647;DHT22;5880;52.342;9.662;2023-04-08T03:38:21;10.10;47.00
11647;DHT22;5880;52.342;9.662;2023-04-08T03:40:47;10.10;47.00
11647;DHT22;5880;52.342;9.662;2023-04-08T03:43:13;10.10;47.00
11647;DHT22;5880;52.342;9.662;2023-04-08T03:45:39;10.80;47.40
11647;DHT22;5880;52.342;9.662;2023-04-08T03:48:05;10.20;47.50
11647;DHT22;5880;52.342;9.662;2023-04-08T03:50:31;10.20;47.30
11647;DHT22;5880;52.342;9.662;2023-04-08T03:52:57;10.20;47.30
11647;DHT22;5880;52.342;9.662;2023-04-08T03:55:22;10.20;47.40
11647;DHT22;5880;52.342;9.662;2023-04-08T03:57:48;10.20;47.50
11647;DHT22;5880;52.342;9.662;2023-04-08T04:00:14;10.20;47.30
11647;DHT22;5880;52.342;9.662;2023-04-08T04:02:40;10.20;47.30
11647;DHT22;5880;52.342;9.662;2023-04-08T04:05:05;10.20;47.40
11647;DHT22;5880;52.342;9.662;2023-04-08T04:07:31;10.20;47.60
11647;DHT22;5880;52.342;9.662;2023-04-08T04:09:57;10.20;47.60
11647;DHT22;5880;52.342;9.662;2023-04-08T04:12:23;10.20;47.60
11647;DHT22;5880;52.342;9.662;2023-04-08T04:14:49;10.20;47.60
11647;DHT22;5880;52.342;9.662;2023-04-08T04:17:14;10.20;48.00
11647;DHT22;5880;52.342;9.662;2023-04-08T04:19:40;10.20;47.70
11647;DHT22;5880;52.342;9.662;2023-04-08T04:22:06;10.20;47.80
11647;DHT22;5880;52.342;9.662;2023-04-08T04:24:32;10.20;47.70
11647;DHT22;5880;52.342;9.662;2023-04-08T04:26:57;10.20;47.80
11647;DHT22;5880;52.342;9.662;2023-04-08T04:29:23;10.20;47.90
11647;DHT22;5880;52.342;9.662;2023-04-08T04:31:49;10.20;47.90
11647;DHT22;5880;52.342;9.662;2023-04-08T04:34:15;10.20;47.90
11647;DHT22;5880;52.342;9.662;2023-04-08T04:36:40;10.20;48.00
11647;DHT22;5880;52.342;9.662;2023-04-08T04:39:06;10.20;48.00
11647;DHT22;5880;52.342;9.662;2023-04-08T04:41:32;10.20;48.00
11647;DHT22;5880;52.342;9.662;2023-04-08T04:43:59;10.30;48.30
11647;DHT22;5880;52.342;9.662;2023-04-08T04:46:26;10.10;48.10
11647;DHT22;5880;52.342;9.662;2023-04-08T04:48:52;10.20;48.20
11647;DHT22;5880;52.342;9.662;2023-04-08T04:51:17;10.20;48.30
11647;DHT22;5880;52.342;9.662;2023-04-08T04:53:43;10.20;48.40
11647;DHT22;5880;52.342;9.662;2023-04-08T04:56:09;10.20;49.10
11647;DHT22;5880;52.342;9.662;2023-04-08T04:58:34;10.20;48.70
11647;DHT22;5880;52.342;9.662;2023-04-08T05:01:00;10.20;49.10
11647;DHT22;5880;52.342;9.662;2023-04-08T05:03:26;10.20;49.90
11647;DHT22;5880;52.342;9.662;2023-04-08T05:05:52;10.20;49.70
11647;DHT22;5880;52.342;9.662;2023-04-08T05:08:20;10.20;49.70
11647;DHT22;5880;52.342;9.662;2023-04-08T05:10:46;10.20;49.90
11647;DHT22;5880;52.342;9.662;2023-04-08T05:13:14;10.10;49.30
11647;DHT22;5880;52.342;9.662;2023-04-08T05:15:40;10.10;49.30
11647;DHT22;5880;52.342;9.662;2023-04-08T05:18:05;10.10;49.60
11647;DHT22;5880;52.342;9.662;2023-04-08T05:20:31;10.10;49.80
11647;DHT22;5880;52.342;9.662;2023-04-08T05:22:57;10.10;49.90
11647;DHT22;5880;52.342;9.662;2023-04-08T05:25:22;10.10;50.10
11647;DHT22;5880;52.342;9.662;2023-04-08T05:27:48;10.10;50.50
11647;DHT22;5880;52.342;9.662;2023-04-08T05:30:13;10.10;50.40
11647;DHT22;5880;52.342;9.662;2023-04-08T05:32:40;10.10;51.10
11647;DHT22;5880;52.342;9.662;2023-04-08T05:35:06;10.10;50.50
11647;DHT22;5880;52.342;9.662;2023-04-08T05:37:32;10.10;50.80
11647;DHT22;5880;52.342;9.662;2023-04-08T05:39:58;10.00;50.70
11647;DHT22;5880;52.342;9.662;2023-04-08T05:42:23;10.00;51.30
11647;DHT22;5880;52.342;9.662;2023-04-08T05:44:49;10.00;50.60
11647;DHT22;5880;52.342;9.662;2023-04-08T05:47:14;10.00;51.10
11647;DHT22;5880;52.342;9.662;2023-04-08T05:49:40;10.00;52.10
11647;DHT22;5880;52.342;9.662;2023-04-08T05:52:06;9.90;51.80
11647;DHT22;5880;52.342;9.662;2023-04-08T05:54:32;9.90;52.20
11647;DHT22;5880;52.342;9.662;2023-04-08T05:56:57;9.90;51.80
11647;DHT22;5880;52.342;9.662;2023-04-08T05:59:23;9.90;51.80
11647;DHT22;5880;52.342;9.662;2023-04-08T06:01:49;9.90;52.30
11647;DHT22;5880;52.342;9.662;2023-04-08T06:04:14;9.90;52.20
11647;DHT22;5880;52.342;9.662;2023-04-08T06:06:42;9.90;52.40
11647;DHT22;5880;52.342;9.662;2023-04-08T06:09:07;9.90;52.20
11647;DHT22;5880;52.342;9.662;2023-04-08T06:11:34;9.90;52.20
11647;DHT22;5880;52.342;9.662;2023-04-08T06:14:00;9.90;52.70
11647;DHT22;5880;52.342;9.662;2023-04-08T06:16:26;9.90;52.20
11647;DHT22;5880;52.342;9.662;2023-04-08T06:18:51;9.90;52.50
11647;DHT22;5880;52.342;9.662;2023-04-08T06:21:17;9.90;52.20
11647;DHT22;5880;52.342;9.662;2023-04-08T06:23:43;9.90;52.10
11647;DHT22;5880;52.342;9.662;2023-04-08T06:26:09;9.90;53.20
11647;DHT22;5880;52.342;9.662;2023-04-08T06:28:34;10.00;52.50
11647;DHT22;5880;52.342;9.662;2023-04-08T06:31:00;10.00;52.30
11647;DHT22;5880;52.342;9.662;2023-04-08T06:33:26;10.00;52.20
11647;DHT22;5880;52.342;9.662;2023-04-08T06:36:00;10.00;52.90
11647;DHT22;5880;52.342;9.662;2023-04-08T06:38:28;10.00;53.20
11647;DHT22;5880;52.342;9.662;2023-04-08T06:40:54;10.00;52.90
11647;DHT22;5880;52.342;9.662;2023-04-08T06:43:20;10.00;53.70
11647;DHT22;5880;52.342;9.662;2023-04-08T06:45:46;10.00;53.90
11647;DHT22;5880;52.342;9.662;2023-04-08T06:48:12;10.00;53.00
11647;DHT22;5880;52.342;9.662;2023-04-08T06:50:37;10.00;53.00
11647;DHT22;5880;52.342;9.662;2023-04-08T06:53:03;10.00;54.10
11647;DHT22;5880;52.342;9.662;2023-04-08T06:55:28;10.00;54.30
11647;DHT22;5880;52.342;9.662;2023-04-08T06:57:54;10.00;53.70
11647;DHT22;5880;52.342;9.662;2023-04-08T07:00:20;10.00;53.60
11647;DHT22;5880;52.342;9.662;2023-04-08T07:02:46;10.10;55.20
11647;DHT22;5880;52.342;9.662;2023-04-08T07:05:12;10.10;54.20
11647;DHT22;5880;52.342;9.662;2023-04-08T07:07:37;9.60;53.90
11647;DHT22;5880;52.342;9.662;2023-04-08T07:10:03;10.10;54.60
11647;DHT22;5880;52.342;9.662;2023-04-08T07:12:29;10.10;54.50
11647;DHT22;5880;52.342;9.662;2023-04-08T07:14:55;10.10;53.90
11647;DHT22;5880;52.342;9.662;2023-04-08T07:17:20;10.10;53.80
11647;DHT22;5880;52.342;9.662;2023-04-08T07:19:46;10.20;53.90
11647;DHT22;5880;52.342;9.662;2023-04-08T07:22:12;10.20;53.80
11647;DHT22;5880;52.342;9.662;2023-04-08T07:24:38;10.20;54.70
11647;DHT22;5880;52.342;9.662;2023-04-08T07:27:07;10.20;54.00
11647;DHT22;5880;52.342;9.662;2023-04-08T07:29:33;10.20;54.20
11647;DHT22;5880;52.342;9.662;2023-04-08T07:31:59;10.20;53.80
11647;DHT22;5880;52.342;9.662;2023-04-08T07:34:24;10.30;54.30
11647;DHT22;5880;52.342;9.662;2023-04-08T07:36:50;10.30;54.70
11647;DHT22;5880;52.342;9.662;2023-04-08T07:39:15;10.30;54.60
11647;DHT22;5880;52.342;9.662;2023-04-08T07:41:41;10.30;54.60
11647;DHT22;5880;52.342;9.662;2023-04-08T07:44:07;10.40;54.40
11647;DHT22;5880;52.342;9.662;2023-04-08T07:46:36;10.40;54.40
11647;DHT22;5880;52.342;9.662;2023-04-08T07:49:03;10.40;55.40
11647;DHT22;5880;52.342;9.662;2023-04-08T07:51:28;10.40;54.40
11647;DHT22;5880;52.342;9.662;2023-04-08T07:53:54;10.40;54.50
11647;DHT22;5880;52.342;9.662;2023-04-08T07:56:20;10.50;55.40
11647;DHT22;5880;52.342;9.662;2023-04-08T07:58:46;10.50;54.90
11647;DHT22;5880;52.342;9.662;2023-04-08T08:01:19;10.50;54.50
11647;DHT22;5880;52.342;9.662;2023-04-08T08:03:50;10.60;56.70
11647;DHT22;5880;52.342;9.662;2023-04-08T08:06:16;10.60;54.80
11647;DHT22;5880;52.342;9.662;2023-04-08T08:08:42;10.70;54.60
11647;DHT22;5880;52.342;9.662;2023-04-08T08:11:08;10.70;54.40
11647;DHT22;5880;52.342;9.662;2023-04-08T08:13:34;10.70;54.30
11647;DHT22;5880;52.342;9.662;2023-04-08T08:16:00;10.80;54.40
11647;DHT22;5880;52.342;9.662;2023-04-08T08:18:25;10.80;54.40
11647;DHT22;5880;52.342;9.662;2023-04-08T08:20:51;10.80;54.50
11647;DHT22;5880;52.342;9.662;2023-04-08T08:23:17;10.90;54.30
11647;DHT22;5880;52.342;9.662;2023-04-08T08:25:42;10.90;54.40
11647;DHT22;5880;52.342;9.662;2023-04-08T08:28:08;10.90;54.20
11647;DHT22;5880;52.342;9.662;2023-04-08T08:30:34;10.90;54.10
11647;DHT22;5880;52.342;9.662;2023-04-08T08:32:59;11.00;54.10
11647;DHT22;5880;52.342;9.662;2023-04-08T08:35:25;11.00;54.60
11647;DHT22;5880;52.342;9.662;2023-04-08T08:37:51;11.00;54.40
11647;DHT22;5880;52.342;9.662;2023-04-08T08:40:16;11.00;54.20
11647;DHT22;5880;52.342;9.662;2023-04-08T08:42:51;11.00;54.40
11647;DHT22;5880;52.342;9.662;2023-04-08T08:45:19;11.10;55.70
11647;DHT22;5880;52.342;9.662;2023-04-08T08:47:45;11.10;54.60
11647;DHT22;5880;52.342;9.662;2023-04-08T08:50:10;11.10;54.60
11647;DHT22;5880;52.342;9.662;2023-04-08T08:52:36;11.10;54.50
11647;DHT22;5880;52.342;9.662;2023-04-08T08:55:01;11.10;54.40
11647;DHT22;5880;52.342;9.662;2023-04-08T08:57:27;11.20;54.20
11647;DHT22;5880;52.342;9.662;2023-04-08T08:59:53;11.20;54.10
11647;DHT22;5880;52.342;9.662;2023-04-08T09:02:31;11.20;54.70
11647;DHT22;5880;52.342;9.662;2023-04-08T09:04:59;11.20;55.70
11647;DHT22;5880;52.342;9.662;2023-04-08T09:07:27;11.30;54.80
11647;DHT22;5880;52.342;9.662;2023-04-08T09:09:55;11.30;54.70
11647;DHT22;5880;52.342;9.662;2023-04-08T09:12:22;11.30;54.80
11647;DHT22;5880;52.342;9.662;2023-04-08T09:14:49;11.40;55.20
11647;DHT22;5880;52.342;9.662;2023-04-08T09:17:30;11.30;55.30
11647;DHT22;5880;52.342;9.662;2023-04-08T09:20:10;11.40;55.80
11647;DHT22;5880;52.342;9.662;2023-04-08T09:22:56;11.40;55.70
11647;DHT22;5880;52.342;9.662;2023-04-08T09:25:27;11.40;56.60
11647;DHT22;5880;52.342;9.662;2023-04-08T09:27:56;11.40;54.60
11647;DHT22;5880;52.342;9.662;2023-04-08T09:30:26;11.40;54.60
11647;DHT22;5880;52.342;9.662;2023-04-08T09:32:54;11.40;54.40
11647;DHT22;5880;52.342;9.662;2023-04-08T09:35:21;11.40;54.60
11647;DHT22;5880;52.342;9.662;2023-04-08T09:37:48;11.40;55.10
11647;DHT22;5880;52.342;9.662;2023-04-08T09:40:16;11.50;55.30
11647;DHT22;5880;52.342;9.662;2023-04-08T09:42:45;11.40;55.20
11647;DHT22;5880;52.342;9.662;2023-04-08T09:45:16;11.40;55.10
11647;DHT22;5880;52.342;9.662;2023-04-08T09:50:42;11.40;58.00
11647;DHT22;5880;52.342;9.662;2023-04-08T09:53:19;11.40;56.10
11647;DHT22;5880;52.342;9.662;2023-04-08T09:55:59;11.40;55.40
11647;DHT22;5880;52.342;9.662;2023-04-08T09:58:45;11.30;54.80
11647;DHT22;5880;52.342;9.662;2023-04-08T10:01:33;10.50;55.70
11647;DHT22;5880;52.342;9.662;2023-04-08T10:04:13;11.30;56.40
11647;DHT22;5880;52.342;9.662;2023-04-08T10:06:41;11.40;56.20
11647;DHT22;5880;52.342;9.662;2023-04-08T10:09:08;11.40;55.50
11647;DHT22;5880;52.342;9.662;2023-04-08T10:11:35;11.40;55.40
11647;DHT22;5880;52.342;9.662;2023-04-08T10:14:01;11.50;55.70
11647;DHT22;5880;52.342;9.662;2023-04-08T10:16:27;11.60;55.50
11647;DHT22;5880;52.342;9.662;2023-04-08T10:18:54;11.60;55.90
11647;DHT22;5880;52.342;9.662;2023-04-08T10:23:59;11.70;57.00
11647;DHT22;5880;52.342;9.662;2023-04-08T10:26:35;11.70;56.10
11647;DHT22;5880;52.342;9.662;2023-04-08T10:31:44;11.80;56.70
11647;DHT22;5880;52.342;9.662;2023-04-08T10:34:23;11.80;55.60
11647;DHT22;5880;52.342;9.662;2023-04-08T10:36:51;11.80;56.50
11647;DHT22;5880;52.342;9.662;2023-04-08T10:39:17;11.80;55.40
11647;DHT22;5880;52.342;9.662;2023-04-08T10:41:48;11.90;55.60
11647;DHT22;5880;52.342;9.662;2023-04-08T10:44:22;11.90;55.90
11647;DHT22;5880;52.342;9.662;2023-04-08T10:46:52;11.80;55.90
11647;DHT22;5880;52.342;9.662;2023-04-08T10:49:18;11.80;55.20
11647;DHT22;5880;52.342;9.662;2023-04-08T10:51:46;11.90;55.50
11647;DHT22;5880;52.342;9.662;2023-04-08T10:54:16;11.90;55.20
11647;DHT22;5880;52.342;9.662;2023-04-08T10:56:50;11.90;56.00
11647;DHT22;5880;52.342;9.662;2023-04-08T10:59:30;12.00;56.00
11647;DHT22;5880;52.342;9.662;2023-04-08T11:01:57;11.90;56.50
11647;DHT22;5880;52.342;9.662;2023-04-08T11:04:24;12.00;55.20
11647;DHT22;5880;52.342;9.662;2023-04-08T11:06:50;11.90;55.00
11647;DHT22;5880;52.342;9.662;2023-04-08T11:09:16;11.90;54.90
11647;DHT22;5880;52.342;9.662;2023-04-08T11:11:43;11.90;55.30
11647;DHT22;5880;52.342;9.662;2023-04-08T11:14:09;11.90;55.40
11647;DHT22;5880;52.342;9.662;2023-04-08T11:16:37;11.90;55.20
11647;DHT22;5880;52.342;9.662;2023-04-08T11:19:04;12.00;55.60
11647;DHT22;5880;52.342;9.662;2023-04-08T11:21:31;12.00;55.40
11647;DHT22;5880;52.342;9.662;2023-04-08T11:24:00;12.00;55.10
11647;DHT22;5880;52.342;9.662;2023-04-08T11:26:26;12.00;55.00
11647;DHT22;5880;52.342;9.662;2023-04-08T11:28:53;12.00;55.10
11647;DHT22;5880;52.342;9.662;2023-04-08T11:31:20;12.10;55.20
11647;DHT22;5880;52.342;9.662;2023-04-08T11:33:52;12.10;55.40
11647;DHT22;5880;52.342;9.662;2023-04-08T11:36:19;12.10;55.70
11647;DHT22;5880;52.342;9.662;2023-04-08T11:38:46;12.10;55.60
11647;DHT22;5880;52.342;9.662;2023-04-08T11:41:12;12.10;55.20
11647;DHT22;5880;52.342;9.662;2023-04-08T11:43:38;12.20;55.40
11647;DHT22;5880;52.342;9.662;2023-04-08T11:46:14;12.10;56.60
11647;DHT22;5880;52.342;9.662;2023-04-08T11:48:40;12.00;55.30
11647;DHT22;5880;52.342;9.662;2023-04-08T11:51:07;12.00;54.90
11647;DHT22;5880;52.342;9.662;2023-04-08T11:53:34;12.00;55.30
11647;DHT22;5880;52.342;9.662;2023-04-08T11:56:18;12.00;55.80
11647;DHT22;5880;52.342;9.662;2023-04-08T11:58:45;12.10;57.00
11647;DHT22;5880;52.342;9.662;2023-04-08T12:01:12;12.10;55.40
11647;DHT22;5880;52.342;9.662;2023-04-08T12:03:41;12.10;55.20
11647;DHT22;5880;52.342;9.662;2023-04-08T12:06:18;12.10;55.20
11647;DHT22;5880;52.342;9.662;2023-04-08T12:08:46;12.10;55.30
11647;DHT22;5880;52.342;9.662;2023-04-08T12:11:12;12.10;55.00
11647;DHT22;5880;52.342;9.662;2023-04-08T12:13:40;12.10;54.70
11647;DHT22;5880;52.342;9.662;2023-04-08T12:16:06;12.10;55.00
11647;DHT22;5880;52.342;9.662;2023-04-08T12:18:32;12.10;55.00
11647;DHT22;5880;52.342;9.662;2023-04-08T12:20:58;12.10;55.20
11647;DHT22;5880;52.342;9.662;2023-04-08T12:23:23;12.10;55.20
11647;DHT22;5880;52.342;9.662;2023-04-08T12:25:49;12.10;55.20
11647;DHT22;5880;52.342;9.662;2023-04-08T12:28:15;12.10;55.40
11647;DHT22;5880;52.342;9.662;2023-04-08T12:30:41;12.10;55.40
11647;DHT22;5880;52.342;9.662;2023-04-08T12:33:06;12.00;55.40
11647;DHT22;5880;52.342;9.662;2023-04-08T12:35:32;12.10;55.90
11647;DHT22;5880;52.342;9.662;2023-04-08T12:37:58;12.10;55.80
11647;DHT22;5880;52.342;9.662;2023-04-08T12:40:23;12.10;56.10
11647;DHT22;5880;52.342;9.662;2023-04-08T12:42:49;12.10;55.80
11647;DHT22;5880;52.342;9.662;2023-04-08T12:45:15;12.10;55.70
11647;DHT22;5880;52.342;9.662;2023-04-08T12:47:41;12.10;55.20
11647;DHT22;5880;52.342;9.662;2023-04-08T12:50:06;12.10;55.70
11647;DHT22;5880;52.342;9.662;2023-04-08T12:52:34;12.10;55.30
11647;DHT22;5880;52.342;9.662;2023-04-08T12:54:59;12.10;55.50
11647;DHT22;5880;52.342;9.662;2023-04-08T12:57:25;12.10;55.60
11647;DHT22;5880;52.342;9.662;2023-04-08T12:59:52;12.10;55.10
11647;DHT22;5880;52.342;9.662;2023-04-08T13:02:18;12.10;55.30
11647;DHT22;5880;52.342;9.662;2023-04-08T13:04:44;12.10;55.50
11647;DHT22;5880;52.342;9.662;2023-04-08T13:07:09;12.10;55.70
11647;DHT22;5880;52.342;9.662;2023-04-08T13:09:35;12.10;55.80
11647;DHT22;5880;52.342;9.662;2023-04-08T13:12:01;12.10;55.90
11647;DHT22;5880;52.342;9.662;2023-04-08T13:14:27;12.10;56.10
11647;DHT22;5880;52.342;9.662;2023-04-08T13:16:53;12.10;56.00
11647;DHT22;5880;52.342;9.662;2023-04-08T13:19:19;12.20;56.50
11647;DHT22;5880;52.342;9.662;2023-04-08T13:21:44;12.20;56.30
11647;DHT22;5880;52.342;9.662;2023-04-08T13:24:10;12.20;56.00
11647;DHT22;5880;52.342;9.662;2023-04-08T13:26:36;12.30;56.20
11647;DHT22;5880;52.342;9.662;2023-04-08T13:29:01;12.30;56.20
11647;DHT22;5880;52.342;9.662;2023-04-08T13:31:27;12.30;56.20
11647;DHT22;5880;52.342;9.662;2023-04-08T13:33:53;12.30;56.10
11647;DHT22;5880;52.342;9.662;2023-04-08T13:36:18;12.40;56.60
11647;DHT22;5880;52.342;9.662;2023-04-08T13:38:44;12.40;56.30
11647;DHT22;5880;52.342;9.662;2023-04-08T13:41:10;12.40;56.50
11647;DHT22;5880;52.342;9.662;2023-04-08T13:43:36;12.50;56.60
11647;DHT22;5880;52.342;9.662;2023-04-08T13:46:01;12.50;56.30
11647;DHT22;5880;52.342;9.662;2023-04-08T13:48:27;12.50;56.40
11647;DHT22;5880;52.342;9.662;2023-04-08T13:50:53;12.60;56.30
11647;DHT22;5880;52.342;9.662;2023-04-08T13:53:18;12.60;56.60
11647;DHT22;5880;52.342;9.662;2023-04-08T13:55:44;12.60;56.30
11647;DHT22;5880;52.342;9.662;2023-04-08T13:58:10;13.30;56.30
11647;DHT22;5880;52.342;9.662;2023-04-08T14:00:35;12.70;56.40
11647;DHT22;5880;52.342;9.662;2023-04-08T14:03:01;12.70;56.10
11647;DHT22;5880;52.342;9.662;2023-04-08T14:05:26;12.70;56.10
11647;DHT22;5880;52.342;9.662;2023-04-08T14:07:52;12.70;56.10
11647;DHT22;5880;52.342;9.662;2023-04-08T14:10:18;12.80;56.10
11647;DHT22;5880;52.342;9.662;2023-04-08T14:12:43;12.80;55.70
11647;DHT22;5880;52.342;9.662;2023-04-08T14:15:10;12.80;55.70
11647;DHT22;5880;52.342;9.662;2023-04-08T14:17:36;12.80;55.80
11647;DHT22;5880;52.342;9.662;2023-04-08T14:20:02;12.90;55.90
11647;DHT22;5880;52.342;9.662;2023-04-08T14:22:29;12.90;55.70
11647;DHT22;5880;52.342;9.662;2023-04-08T14:24:55;12.90;55.50
11647;DHT22;5880;52.342;9.662;2023-04-08T14:27:21;12.90;55.80
11647;DHT22;5880;52.342;9.662;2023-04-08T14:29:46;12.90;55.30
11647;DHT22;5880;52.342;9.662;2023-04-08T14:32:12;12.90;55.30
11647;DHT22;5880;52.342;9.662;2023-04-08T14:34:38;12.90;55.40
11647;DHT22;5880;52.342;9.662;2023-04-08T14:37:03;12.90;55.40
11647;DHT22;5880;52.342;9.662;2023-04-08T14:39:29;12.90;55.40
11647;DHT22;5880;52.342;9.662;2023-04-08T14:41:55;12.90;55.40
11647;DHT22;5880;52.342;9.662;2023-04-08T14:44:22;12.90;55.30
11647;DHT22;5880;52.342;9.662;2023-04-08T14:46:48;12.90;55.20
11647;DHT22;5880;52.342;9.662;2023-04-08T14:49:14;12.90;55.50
11647;DHT22;5880;52.342;9.662;2023-04-08T14:51:39;12.90;55.20
11647;DHT22;5880;52.342;9.662;2023-04-08T14:54:05;12.90;55.20
11647;DHT22;5880;52.342;9.662;2023-04-08T14:56:31;12.90;55.30
11647;DHT22;5880;52.342;9.662;2023-04-08T14:58:57;12.90;55.40
11647;DHT22;5880;52.342;9.662;2023-04-08T15:01:22;12.90;56.30
11647;DHT22;5880;52.342;9.662;2023-04-08T15:03:48;12.80;55.30
11647;DHT22;5880;52.342;9.662;2023-04-08T15:06:14;12.80;54.90
11647;DHT22;5880;52.342;9.662;2023-04-08T15:08:42;12.90;55.20
11647;DHT22;5880;52.342;9.662;2023-04-08T15:23:21;12.80;55.70
11647;DHT22;5880;52.342;9.662;2023-04-08T15:25:47;12.70;59.10
11647;DHT22;5880;52.342;9.662;2023-04-08T15:28:13;12.70;58.10
11647;DHT22;5880;52.342;9.662;2023-04-08T15:30:39;12.90;57.30
11647;DHT22;5880;52.342;9.662;2023-04-08T15:33:04;12.90;56.60
11647;DHT22;5880;52.342;9.662;2023-04-08T15:35:30;12.90;56.20
11647;DHT22;5880;52.342;9.662;2023-04-08T15:37:57;12.90;56.10
11647;DHT22;5880;52.342;9.662;2023-04-08T15:40:22;12.90;55.90
11647;DHT22;5880;52.342;9.662;2023-04-08T15:42:48;12.90;55.60
11647;DHT22;5880;52.342;9.662;2023-04-08T15:45:14;12.80;55.60
11647;DHT22;5880;52.342;9.662;2023-04-08T15:47:39;12.80;55.80
11647;DHT22;5880;52.342;9.662;2023-04-08T15:50:06;12.80;55.60
11647;DHT22;5880;52.342;9.662;2023-04-08T15:52:32;12.70;55.40
11647;DHT22;5880;52.342;9.662;2023-04-08T15:54:59;12.70;55.40
11647;DHT22;5880;52.342;9.662;2023-04-08T15:57:26;12.70;55.50
11647;DHT22;5880;52.342;9.662;2023-04-08T15:59:56;12.70;55.60
11647;DHT22;5880;52.342;9.662;2023-04-08T16:02:22;12.60;55.60
11647;DHT22;5880;52.342;9.662;2023-04-08T16:04:47;12.60;55.80
11647;DHT22;5880;52.342;9.662;2023-04-08T16:07:13;12.60;55.50
11647;DHT22;5880;52.342;9.662;2023-04-08T16:09:39;12.60;56.20
11647;DHT22;5880;52.342;9.662;2023-04-08T16:12:04;12.60;56.10
11647;DHT22;5880;52.342;9.662;2023-04-08T16:14:30;12.50;55.90